sensor_id;sensor_type;location;lat;lon;timestamp;P1;durP1;ratioP1;P2;durP2;ratioP2
10365;SDS011;5229;41.820;23.490;2023-02-12T00:01:37;1.10;;;0.80;;
10365;SDS011;5229;41.820;23.490;2023-02-12T00:04:04;0.80;;;0.80;;
10365;SDS011;5229;41.820;23.490;2023-02-12T00:06:30;1.13;;;1.00;;
10365;SDS011;5229;41.820;23.490;2023-02-12T00:08:59;2.53;;;1.90;;
10365;SDS011;5229;41.820;23.490;2023-02-12T00:11:26;1.63;;;1.00;;
10365;SDS011;5229;41.820;23.490;2023-02-12T00:13:54;2.07;;;1.07;;
10365;SDS011;5229;41.820;23.490;2023-02-12T00:16:22;1.27;;;1.17;;
10365;SDS011;5229;41.820;23.490;2023-02-12T00:18:51;6.43;;;2.43;;
10365;SDS011;5229;41.820;23.490;2023-02-12T00:21:19;7.50;;;4.67;;
10365;SDS011;5229;41.820;23.490;2023-02-12T00:23:47;4.13;;;2.57;;
10365;SDS011;5229;41.820;23.490;2023-02-12T00:26:16;5.33;;;2.60;;
10365;SDS011;5229;41.820;23.490;2023-02-12T00:28:44;2.60;;;1.83;;
10365;SDS011;5229;41.820;23.490;2023-02-12T00:31:12;1.73;;;1.33;;
10365;SDS011;5229;41.820;23.490;2023-02-12T00:33:41;1.60;;;1.30;;
10365;SDS011;5229;41.820;23.490;2023-02-12T00:36:08;1.93;;;1.40;;
10365;SDS011;5229;41.820;23.490;2023-02-12T00:38:38;2.53;;;1.40;;
10365;SDS011;5229;41.820;23.490;2023-02-12T00:41:05;2.17;;;1.63;;
10365;SDS011;5229;41.820;23.490;2023-02-12T00:43:33;2.37;;;1.87;;
10365;SDS011;5229;41.820;23.490;2023-02-12T00:46:00;1.47;;;1.30;;
10365;SDS011;5229;41.820;23.490;2023-02-12T00:48:26;5.20;;;3.20;;
10365;SDS011;5229;41.820;23.490;2023-02-12T00:50:53;6.23;;;3.20;;
10365;SDS011;5229;41.820;23.490;2023-02-12T00:53:20;7.27;;;3.50;;
10365;SDS011;5229;41.820;23.490;2023-02-12T00:55:47;7.40;;;3.17;;
10365;SDS011;5229;41.820;23.490;2023-02-12T00:58:14;4.03;;;3.57;;
10365;SDS011;5229;41.820;23.490;2023-02-12T01:00:43;7.07;;;3.53;;
10365;SDS011;5229;41.820;23.490;2023-02-12T01:03:10;6.30;;;3.80;;
10365;SDS011;5229;41.820;23.490;2023-02-12T01:05:36;5.43;;;3.63;;
10365;SDS011;5229;41.820;23.490;2023-02-12T01:08:04;4.63;;;3.30;;
10365;SDS011;5229;41.820;23.490;2023-02-12T01:10:31;5.97;;;3.90;;
10365;SDS011;5229;41.820;23.490;2023-02-12T01:12:59;2.67;;;2.47;;
10365;SDS011;5229;41.820;23.490;2023-02-12T01:15:25;4.27;;;3.03;;
10365;SDS011;5229;41.820;23.490;2023-02-12T01:17:53;3.83;;;2.87;;
10365;SDS011;5229;41.820;23.490;2023-02-12T01:20:21;3.47;;;2.53;;
10365;SDS011;5229;41.820;23.490;2023-02-12T01:22:49;4.33;;;2.47;;
10365;SDS011;5229;41.820;23.490;2023-02-12T01:25:17;2.70;;;1.70;;
10365;SDS011;5229;41.820;23.490;2023-02-12T01:27:44;1.40;;;1.30;;
10365;SDS011;5229;41.820;23.490;2023-02-12T01:30:11;2.00;;;1.67;;
10365;SDS011;5229;41.820;23.490;2023-02-12T01:32:40;2.03;;;1.80;;
10365;SDS011;5229;41.820;23.490;2023-02-12T01:35:09;3.33;;;2.23;;
10365;SDS011;5229;41.820;23.490;2023-02-12T01:37:36;2.30;;;2.00;;
10365;SDS011;5229;41.820;23.490;2023-02-12T01:40:04;3.07;;;2.20;;
10365;SDS011;5229;41.820;23.490;2023-02-12T01:42:33;3.93;;;2.67;;
10365;SDS011;5229;41.820;23.490;2023-02-12T01:48:09;2.53;;;2.03;;
10365;SDS011;5229;41.820;23.490;2023-02-12T01:50:38;3.10;;;2.43;;
10365;SDS011;5229;41.820;23.490;2023-02-12T01:53:06;3.30;;;2.40;;
10365;SDS011;5229;41.820;23.490;2023-02-12T01:55:34;3.23;;;2.00;;
10365;SDS011;5229;41.820;23.490;2023-02-12T01:58:00;2.73;;;2.07;;
10365;SDS011;5229;41.820;23.490;2023-02-12T02:00:29;3.10;;;2.13;;
10365;SDS011;5229;41.820;23.490;2023-02-12T02:02:57;2.30;;;1.90;;
10365;SDS011;5229;41.820;23.490;2023-02-12T02:05:27;2.13;;;1.90;;
10365;SDS011;5229;41.820;23.490;2023-02-12T02:08:01;2.97;;;1.83;;
10365;SDS011;5229;41.820;23.490;2023-02-12T02:10:29;2.83;;;1.60;;
10365;SDS011;5229;41.820;23.490;2023-02-12T02:12:56;3.00;;;2.00;;
10365;SDS011;5229;41.820;23.490;2023-02-12T02:15:53;2.43;;;1.50;;
10365;SDS011;5229;41.820;23.490;2023-02-12T02:18:26;2.20;;;1.70;;
10365;SDS011;5229;41.820;23.490;2023-02-12T02:21:10;3.23;;;2.07;;
10365;SDS011;5229;41.820;23.490;2023-02-12T02:23:57;3.83;;;2.27;;
10365;SDS011;5229;41.820;23.490;2023-02-12T02:32:42;2.77;;;2.03;;
10365;SDS011;5229;41.820;23.490;2023-02-12T02:35:22;4.97;;;3.10;;
10365;SDS011;5229;41.820;23.490;2023-02-12T02:37:56;3.67;;;2.77;;
10365;SDS011;5229;41.820;23.490;2023-02-12T02:40:32;3.07;;;2.40;;
10365;SDS011;5229;41.820;23.490;2023-02-12T02:43:05;4.77;;;2.83;;
10365;SDS011;5229;41.820;23.490;2023-02-12T02:45:35;4.40;;;2.27;;
10365;SDS011;5229;41.820;23.490;2023-02-12T02:48:09;7.03;;;2.60;;
10365;SDS011;5229;41.820;23.490;2023-02-12T02:50:41;3.00;;;2.10;;
10365;SDS011;5229;41.820;23.490;2023-02-12T02:53:13;3.57;;;2.13;;
10365;SDS011;5229;41.820;23.490;2023-02-12T02:55:46;5.10;;;2.60;;
10365;SDS011;5229;41.820;23.490;2023-02-12T02:58:16;3.27;;;2.20;;
10365;SDS011;5229;41.820;23.490;2023-02-12T03:00:46;2.53;;;2.17;;
10365;SDS011;5229;41.820;23.490;2023-02-12T03:03:23;5.63;;;2.57;;
10365;SDS011;5229;41.820;23.490;2023-02-12T03:05:55;2.50;;;2.27;;
10365;SDS011;5229;41.820;23.490;2023-02-12T03:08:27;2.93;;;2.20;;
10365;SDS011;5229;41.820;23.490;2023-02-12T03:10:59;2.53;;;1.60;;
10365;SDS011;5229;41.820;23.490;2023-02-12T03:13:31;2.17;;;1.73;;
10365;SDS011;5229;41.820;23.490;2023-02-12T03:16:03;2.50;;;1.47;;
10365;SDS011;5229;41.820;23.490;2023-02-12T03:18:37;2.10;;;1.77;;
10365;SDS011;5229;41.820;23.490;2023-02-12T03:21:09;3.40;;;2.37;;
10365;SDS011;5229;41.820;23.490;2023-02-12T03:23:39;2.03;;;1.70;;
10365;SDS011;5229;41.820;23.490;2023-02-12T03:26:11;2.97;;;1.87;;
10365;SDS011;5229;41.820;23.490;2023-02-12T03:28:44;1.67;;;1.50;;
10365;SDS011;5229;41.820;23.490;2023-02-12T03:31:14;2.10;;;1.60;;
10365;SDS011;5229;41.820;23.490;2023-02-12T03:33:52;1.40;;;1.20;;
10365;SDS011;5229;41.820;23.490;2023-02-12T03:36:32;2.27;;;1.13;;
10365;SDS011;5229;41.820;23.490;2023-02-12T03:39:05;1.20;;;0.97;;
10365;SDS011;5229;41.820;23.490;2023-02-12T03:41:39;1.53;;;1.00;;
10365;SDS011;5229;41.820;23.490;2023-02-12T03:44:12;1.40;;;1.23;;
10365;SDS011;5229;41.820;23.490;2023-02-12T03:46:44;1.00;;;0.90;;
10365;SDS011;5229;41.820;23.490;2023-02-12T03:49:26;1.77;;;1.10;;
10365;SDS011;5229;41.820;23.490;2023-02-12T03:51:56;1.70;;;1.60;;
10365;SDS011;5229;41.820;23.490;2023-02-12T03:54:24;0.87;;;0.80;;
10365;SDS011;5229;41.820;23.490;2023-02-12T03:56:53;1.57;;;1.20;;
10365;SDS011;5229;41.820;23.490;2023-02-12T03:59:23;1.10;;;0.90;;
10365;SDS011;5229;41.820;23.490;2023-02-12T04:01:51;1.20;;;1.10;;
10365;SDS011;5229;41.820;23.490;2023-02-12T04:04:20;1.50;;;1.30;;
10365;SDS011;5229;41.820;23.490;2023-02-12T04:06:49;1.73;;;1.50;;
10365;SDS011;5229;41.820;23.490;2023-02-12T04:09:18;1.80;;;1.23;;
10365;SDS011;5229;41.820;23.490;2023-02-12T04:11:52;2.27;;;1.50;;
10365;SDS011;5229;41.820;23.490;2023-02-12T04:14:36;0.80;;;0.80;;
10365;SDS011;5229;41.820;23.490;2023-02-12T04:17:13;2.40;;;1.27;;
10365;SDS011;5229;41.820;23.490;2023-02-12T04:19:49;2.20;;;1.33;;
10365;SDS011;5229;41.820;23.490;2023-02-12T04:22:28;1.83;;;1.60;;
10365;SDS011;5229;41.820;23.490;2023-02-12T04:25:08;1.30;;;1.20;;
10365;SDS011;5229;41.820;23.490;2023-02-12T04:27:44;1.30;;;1.07;;
10365;SDS011;5229;41.820;23.490;2023-02-12T04:30:19;1.67;;;1.10;;
10365;SDS011;5229;41.820;23.490;2023-02-12T04:32:50;1.23;;;1.20;;
10365;SDS011;5229;41.820;23.490;2023-02-12T04:35:21;2.07;;;1.30;;
10365;SDS011;5229;41.820;23.490;2023-02-12T04:37:54;1.50;;;1.23;;
10365;SDS011;5229;41.820;23.490;2023-02-12T04:40:28;1.53;;;1.43;;
10365;SDS011;5229;41.820;23.490;2023-02-12T04:42:55;2.10;;;1.13;;
10365;SDS011;5229;41.820;23.490;2023-02-12T04:45:23;1.77;;;1.40;;
10365;SDS011;5229;41.820;23.490;2023-02-12T04:47:52;2.77;;;1.60;;
10365;SDS011;5229;41.820;23.490;2023-02-12T04:50:19;2.90;;;1.50;;
10365;SDS011;5229;41.820;23.490;2023-02-12T04:52:47;1.60;;;1.50;;
10365;SDS011;5229;41.820;23.490;2023-02-12T04:55:15;1.87;;;1.73;;
10365;SDS011;5229;41.820;23.490;2023-02-12T04:57:42;3.30;;;2.30;;
10365;SDS011;5229;41.820;23.490;2023-02-12T05:00:10;2.70;;;1.70;;
10365;SDS011;5229;41.820;23.490;2023-02-12T05:02:38;3.30;;;2.30;;
10365;SDS011;5229;41.820;23.490;2023-02-12T05:05:05;2.73;;;2.00;;
10365;SDS011;5229;41.820;23.490;2023-02-12T05:07:32;2.53;;;2.00;;
10365;SDS011;5229;41.820;23.490;2023-02-12T05:09:59;2.57;;;1.90;;
10365;SDS011;5229;41.820;23.490;2023-02-12T05:12:27;2.33;;;1.87;;
10365;SDS011;5229;41.820;23.490;2023-02-12T05:14:54;3.47;;;2.00;;
10365;SDS011;5229;41.820;23.490;2023-02-12T05:17:22;2.50;;;2.07;;
10365;SDS011;5229;41.820;23.490;2023-02-12T05:19:49;3.07;;;2.43;;
10365;SDS011;5229;41.820;23.490;2023-02-12T05:22:16;2.50;;;2.00;;
10365;SDS011;5229;41.820;23.490;2023-02-12T05:24:44;2.97;;;1.80;;
10365;SDS011;5229;41.820;23.490;2023-02-12T05:27:11;2.67;;;1.93;;
10365;SDS011;5229;41.820;23.490;2023-02-12T05:29:39;2.80;;;2.03;;
10365;SDS011;5229;41.820;23.490;2023-02-12T05:32:06;4.97;;;2.43;;
10365;SDS011;5229;41.820;23.490;2023-02-12T05:34:33;2.23;;;1.80;;
10365;SDS011;5229;41.820;23.490;2023-02-12T05:37:00;2.67;;;1.90;;
10365;SDS011;5229;41.820;23.490;2023-02-12T05:39:27;2.03;;;1.83;;
10365;SDS011;5229;41.820;23.490;2023-02-12T05:41:54;2.47;;;1.80;;
10365;SDS011;5229;41.820;23.490;2023-02-12T05:44:21;2.53;;;2.17;;
10365;SDS011;5229;41.820;23.490;2023-02-12T05:46:49;2.37;;;1.97;;
10365;SDS011;5229;41.820;23.490;2023-02-12T05:49:17;3.43;;;2.50;;
10365;SDS011;5229;41.820;23.490;2023-02-12T05:51:44;4.33;;;2.13;;
10365;SDS011;5229;41.820;23.490;2023-02-12T05:54:11;3.43;;;1.90;;
10365;SDS011;5229;41.820;23.490;2023-02-12T05:56:40;2.77;;;2.30;;
10365;SDS011;5229;41.820;23.490;2023-02-12T05:59:11;3.20;;;2.27;;
10365;SDS011;5229;41.820;23.490;2023-02-12T06:01:41;3.73;;;2.30;;
10365;SDS011;5229;41.820;23.490;2023-02-12T06:04:12;3.73;;;2.50;;
10365;SDS011;5229;41.820;23.490;2023-02-12T06:06:40;5.37;;;2.83;;
10365;SDS011;5229;41.820;23.490;2023-02-12T06:09:07;4.37;;;1.97;;
10365;SDS011;5229;41.820;23.490;2023-02-12T06:11:34;2.50;;;2.10;;
10365;SDS011;5229;41.820;23.490;2023-02-12T06:14:01;3.93;;;2.33;;
10365;SDS011;5229;41.820;23.490;2023-02-12T06:16:28;3.30;;;2.30;;
10365;SDS011;5229;41.820;23.490;2023-02-12T06:18:56;3.60;;;2.63;;
10365;SDS011;5229;41.820;23.490;2023-02-12T06:21:25;3.50;;;2.50;;
10365;SDS011;5229;41.820;23.490;2023-02-12T06:23:52;3.57;;;2.47;;
10365;SDS011;5229;41.820;23.490;2023-02-12T06:26:19;3.87;;;2.57;;
10365;SDS011;5229;41.820;23.490;2023-02-12T06:28:46;5.93;;;4.27;;
10365;SDS011;5229;41.820;23.490;2023-02-12T06:31:17;6.33;;;4.20;;
10365;SDS011;5229;41.820;23.490;2023-02-12T06:33:45;6.60;;;4.57;;
10365;SDS011;5229;41.820;23.490;2023-02-12T06:36:13;5.37;;;4.33;;
10365;SDS011;5229;41.820;23.490;2023-02-12T06:38:41;11.27;;;5.73;;
10365;SDS011;5229;41.820;23.490;2023-02-12T06:41:08;9.73;;;5.87;;
10365;SDS011;5229;41.820;23.490;2023-02-12T06:43:35;8.47;;;5.30;;
10365;SDS011;5229;41.820;23.490;2023-02-12T06:46:02;6.60;;;4.50;;
10365;SDS011;5229;41.820;23.490;2023-02-12T06:48:30;6.20;;;3.77;;
10365;SDS011;5229;41.820;23.490;2023-02-12T06:51:02;6.67;;;4.77;;
10365;SDS011;5229;41.820;23.490;2023-02-12T06:53:31;6.37;;;3.90;;
10365;SDS011;5229;41.820;23.490;2023-02-12T06:56:00;7.93;;;3.97;;
10365;SDS011;5229;41.820;23.490;2023-02-12T06:58:28;5.80;;;4.27;;
10365;SDS011;5229;41.820;23.490;2023-02-12T07:00:54;5.53;;;3.40;;
10365;SDS011;5229;41.820;23.490;2023-02-12T07:03:21;16.03;;;3.63;;
10365;SDS011;5229;41.820;23.490;2023-02-12T07:05:48;4.77;;;3.13;;
10365;SDS011;5229;41.820;23.490;2023-02-12T07:08:15;5.50;;;3.10;;
10365;SDS011;5229;41.820;23.490;2023-02-12T07:10:41;4.43;;;3.33;;
10365;SDS011;5229;41.820;23.490;2023-02-12T07:13:09;4.00;;;2.80;;
10365;SDS011;5229;41.820;23.490;2023-02-12T07:15:37;6.33;;;3.40;;
10365;SDS011;5229;41.820;23.490;2023-02-12T07:18:05;4.03;;;3.13;;
10365;SDS011;5229;41.820;23.490;2023-02-12T07:20:32;5.83;;;3.60;;
10365;SDS011;5229;41.820;23.490;2023-02-12T07:22:58;3.50;;;2.93;;
10365;SDS011;5229;41.820;23.490;2023-02-12T07:25:25;3.93;;;2.70;;
10365;SDS011;5229;41.820;23.490;2023-02-12T07:27:52;4.23;;;2.50;;
10365;SDS011;5229;41.820;23.490;2023-02-12T07:30:20;4.40;;;2.70;;
10365;SDS011;5229;41.820;23.490;2023-02-12T07:32:47;3.37;;;2.53;;
10365;SDS011;5229;41.820;23.490;2023-02-12T07:35:14;4.93;;;3.20;;
10365;SDS011;5229;41.820;23.490;2023-02-12T07:37:40;4.00;;;2.80;;
10365;SDS011;5229;41.820;23.490;2023-02-12T07:40:08;3.87;;;3.07;;
10365;SDS011;5229;41.820;23.490;2023-02-12T07:42:35;3.60;;;3.03;;
10365;SDS011;5229;41.820;23.490;2023-02-12T07:45:02;4.17;;;3.37;;
10365;SDS011;5229;41.820;23.490;2023-02-12T07:47:30;4.73;;;3.10;;
10365;SDS011;5229;41.820;23.490;2023-02-12T07:49:57;3.40;;;3.00;;
10365;SDS011;5229;41.820;23.490;2023-02-12T07:52:24;4.17;;;3.20;;
10365;SDS011;5229;41.820;23.490;2023-02-12T07:54:50;3.20;;;2.80;;
10365;SDS011;5229;41.820;23.490;2023-02-12T07:57:17;4.60;;;2.70;;
10365;SDS011;5229;41.820;23.490;2023-02-12T07:59:44;3.10;;;2.67;;
10365;SDS011;5229;41.820;23.490;2023-02-12T08:02:11;6.50;;;2.70;;
10365;SDS011;5229;41.820;23.490;2023-02-12T08:04:39;3.57;;;2.63;;
10365;SDS011;5229;41.820;23.490;2023-02-12T08:07:06;6.70;;;2.37;;
10365;SDS011;5229;41.820;23.490;2023-02-12T08:09:33;10.70;;;2.70;;
10365;SDS011;5229;41.820;23.490;2023-02-12T08:11:59;2.97;;;2.67;;
10365;SDS011;5229;41.820;23.490;2023-02-12T08:14:26;3.40;;;2.83;;
10365;SDS011;5229;41.820;23.490;2023-02-12T08:16:53;3.60;;;2.80;;
10365;SDS011;5229;41.820;23.490;2023-02-12T08:19:20;5.40;;;2.67;;
10365;SDS011;5229;41.820;23.490;2023-02-12T08:21:49;6.07;;;3.13;;
10365;SDS011;5229;41.820;23.490;2023-02-12T08:24:17;4.77;;;3.10;;
10365;SDS011;5229;41.820;23.490;2023-02-12T08:26:46;4.20;;;3.13;;
10365;SDS011;5229;41.820;23.490;2023-02-12T08:29:13;4.17;;;3.23;;
10365;SDS011;5229;41.820;23.490;2023-02-12T08:31:42;3.77;;;2.87;;
10365;SDS011;5229;41.820;23.490;2023-02-12T08:34:14;7.93;;;3.00;;
10365;SDS011;5229;41.820;23.490;2023-02-12T08:36:43;4.37;;;3.10;;
10365;SDS011;5229;41.820;23.490;2023-02-12T08:39:11;3.97;;;3.10;;
10365;SDS011;5229;41.820;23.490;2023-02-12T08:41:41;5.47;;;3.20;;
10365;SDS011;5229;41.820;23.490;2023-02-12T08:44:08;3.90;;;2.80;;
10365;SDS011;5229;41.820;23.490;2023-02-12T08:46:36;3.63;;;2.93;;
10365;SDS011;5229;41.820;23.490;2023-02-12T08:49:04;4.10;;;3.00;;
10365;SDS011;5229;41.820;23.490;2023-02-12T08:51:33;3.47;;;3.10;;
10365;SDS011;5229;41.820;23.490;2023-02-12T08:54:02;4.80;;;3.13;;
10365;SDS011;5229;41.820;23.490;2023-02-12T08:56:32;3.93;;;2.97;;
10365;SDS011;5229;41.820;23.490;2023-02-12T08:59:00;4.17;;;3.17;;
10365;SDS011;5229;41.820;23.490;2023-02-12T09:01:29;8.30;;;3.30;;
10365;SDS011;5229;41.820;23.490;2023-02-12T09:03:58;4.07;;;3.10;;
10365;SDS011;5229;41.820;23.490;2023-02-12T09:06:25;3.77;;;2.90;;
10365;SDS011;5229;41.820;23.490;2023-02-12T09:08:53;5.30;;;3.30;;
10365;SDS011;5229;41.820;23.490;2023-02-12T09:11:22;5.43;;;3.70;;
10365;SDS011;5229;41.820;23.490;2023-02-12T09:13:56;4.90;;;3.70;;
10365;SDS011;5229;41.820;23.490;2023-02-12T09:16:24;5.27;;;3.03;;
10365;SDS011;5229;41.820;23.490;2023-02-12T09:18:53;4.63;;;3.30;;
10365;SDS011;5229;41.820;23.490;2023-02-12T09:21:20;5.37;;;3.80;;
10365;SDS011;5229;41.820;23.490;2023-02-12T09:23:48;4.77;;;3.57;;
10365;SDS011;5229;41.820;23.490;2023-02-12T09:26:16;4.27;;;3.43;;
10365;SDS011;5229;41.820;23.490;2023-02-12T09:28:45;5.10;;;3.80;;
10365;SDS011;5229;41.820;23.490;2023-02-12T09:31:15;5.30;;;3.23;;
10365;SDS011;5229;41.820;23.490;2023-02-12T09:33:43;5.83;;;3.80;;
10365;SDS011;5229;41.820;23.490;2023-02-12T09:36:10;4.50;;;3.70;;
10365;SDS011;5229;41.820;23.490;2023-02-12T09:38:38;4.80;;;3.37;;
10365;SDS011;5229;41.820;23.490;2023-02-12T09:44:05;4.90;;;3.73;;
10365;SDS011;5229;41.820;23.490;2023-02-12T09:46:39;3.83;;;3.47;;
10365;SDS011;5229;41.820;23.490;2023-02-12T09:49:14;4.23;;;3.63;;
10365;SDS011;5229;41.820;23.490;2023-02-12T09:51:49;3.40;;;3.00;;
10365;SDS011;5229;41.820;23.490;2023-02-12T09:54:19;4.63;;;3.33;;
10365;SDS011;5229;41.820;23.490;2023-02-12T09:56:48;5.73;;;3.00;;
10365;SDS011;5229;41.820;23.490;2023-02-12T09:59:19;4.20;;;3.50;;
10365;SDS011;5229;41.820;23.490;2023-02-12T10:01:56;3.83;;;3.10;;
10365;SDS011;5229;41.820;23.490;2023-02-12T10:04:24;4.03;;;2.60;;
10365;SDS011;5229;41.820;23.490;2023-02-12T10:06:54;5.03;;;3.17;;
10365;SDS011;5229;41.820;23.490;2023-02-12T10:09:31;3.30;;;3.00;;
10365;SDS011;5229;41.820;23.490;2023-02-12T10:12:11;4.00;;;3.27;;
10365;SDS011;5229;41.820;23.490;2023-02-12T10:17:41;4.60;;;3.60;;
10365;SDS011;5229;41.820;23.490;2023-02-12T10:20:20;4.37;;;3.10;;
10365;SDS011;5229;41.820;23.490;2023-02-12T10:23:08;4.37;;;3.50;;
10365;SDS011;5229;41.820;23.490;2023-02-12T10:25:50;4.67;;;3.20;;
10365;SDS011;5229;41.820;23.490;2023-02-12T10:28:23;4.40;;;3.23;;
10365;SDS011;5229;41.820;23.490;2023-02-12T10:30:52;5.17;;;3.37;;
10365;SDS011;5229;41.820;23.490;2023-02-12T10:33:25;4.27;;;3.47;;
10365;SDS011;5229;41.820;23.490;2023-02-12T10:35:55;4.23;;;3.83;;
10365;SDS011;5229;41.820;23.490;2023-02-12T10:38:28;14.70;;;4.50;;
10365;SDS011;5229;41.820;23.490;2023-02-12T10:40:58;4.50;;;3.53;;
10365;SDS011;5229;41.820;23.490;2023-02-12T10:43:26;4.87;;;3.87;;
10365;SDS011;5229;41.820;23.490;2023-02-12T10:45:54;5.13;;;4.27;;
10365;SDS011;5229;41.820;23.490;2023-02-12T10:48:22;7.27;;;3.93;;
10365;SDS011;5229;41.820;23.490;2023-02-12T10:50:58;4.43;;;3.80;;
10365;SDS011;5229;41.820;23.490;2023-02-12T10:53:37;4.93;;;3.80;;
10365;SDS011;5229;41.820;23.490;2023-02-12T10:56:08;6.17;;;4.47;;
10365;SDS011;5229;41.820;23.490;2023-02-12T10:58:50;5.47;;;4.00;;
10365;SDS011;5229;41.820;23.490;2023-02-12T11:01:21;5.20;;;4.20;;
10365;SDS011;5229;41.820;23.490;2023-02-12T11:03:52;5.37;;;4.53;;
10365;SDS011;5229;41.820;23.490;2023-02-12T11:06:20;5.23;;;4.53;;
10365;SDS011;5229;41.820;23.490;2023-02-12T11:08:50;5.23;;;4.50;;
10365;SDS011;5229;41.820;23.490;2023-02-12T11:11:19;6.40;;;4.73;;
10365;SDS011;5229;41.820;23.490;2023-02-12T11:13:52;4.93;;;4.30;;
10365;SDS011;5229;41.820;23.490;2023-02-12T11:16:28;5.47;;;4.47;;
10365;SDS011;5229;41.820;23.490;2023-02-12T11:18:59;5.47;;;4.50;;
10365;SDS011;5229;41.820;23.490;2023-02-12T11:21:29;4.87;;;4.33;;
10365;SDS011;5229;41.820;23.490;2023-02-12T11:23:57;5.80;;;4.33;;
10365;SDS011;5229;41.820;23.490;2023-02-12T11:26:47;7.57;;;4.97;;
10365;SDS011;5229;41.820;23.490;2023-02-12T11:29:18;6.97;;;5.00;;
10365;SDS011;5229;41.820;23.490;2023-02-12T11:31:58;5.73;;;4.43;;
10365;SDS011;5229;41.820;23.490;2023-02-12T11:34:28;5.10;;;4.60;;
10365;SDS011;5229;41.820;23.490;2023-02-12T11:36:55;7.73;;;4.60;;
10365;SDS011;5229;41.820;23.490;2023-02-12T11:39:24;7.17;;;5.17;;
10365;SDS011;5229;41.820;23.490;2023-02-12T11:41:53;6.37;;;5.43;;
10365;SDS011;5229;41.820;23.490;2023-02-12T11:44:23;6.23;;;4.40;;
10365;SDS011;5229;41.820;23.490;2023-02-12T11:46:53;6.47;;;4.97;;
10365;SDS011;5229;41.820;23.490;2023-02-12T11:49:24;6.93;;;5.10;;
10365;SDS011;5229;41.820;23.490;2023-02-12T11:51:56;7.07;;;5.17;;
10365;SDS011;5229;41.820;23.490;2023-02-12T11:54:26;10.20;;;5.63;;
10365;SDS011;5229;41.820;23.490;2023-02-12T11:56:55;8.30;;;5.23;;
10365;SDS011;5229;41.820;23.490;2023-02-12T11:59:33;11.40;;;4.97;;
10365;SDS011;5229;41.820;23.490;2023-02-12T12:02:03;5.87;;;4.53;;
10365;SDS011;5229;41.820;23.490;2023-02-12T12:04:41;7.70;;;5.80;;
10365;SDS011;5229;41.820;23.490;2023-02-12T12:07:13;5.17;;;4.67;;
10365;SDS011;5229;41.820;23.490;2023-02-12T12:09:47;7.00;;;5.30;;
10365;SDS011;5229;41.820;23.490;2023-02-12T12:12:21;5.63;;;4.80;;
10365;SDS011;5229;41.820;23.490;2023-02-12T12:14:52;6.57;;;5.50;;
10365;SDS011;5229;41.820;23.490;2023-02-12T12:17:58;6.30;;;5.17;;
10365;SDS011;5229;41.820;23.490;2023-02-12T12:20:51;9.27;;;6.13;;
10365;SDS011;5229;41.820;23.490;2023-02-12T12:23:23;8.47;;;5.40;;
10365;SDS011;5229;41.820;23.490;2023-02-12T12:25:56;6.30;;;5.23;;
10365;SDS011;5229;41.820;23.490;2023-02-12T12:28:30;7.00;;;5.27;;
10365;SDS011;5229;41.820;23.490;2023-02-12T12:31:03;7.00;;;4.90;;
10365;SDS011;5229;41.820;23.490;2023-02-12T12:33:36;7.47;;;5.00;;
10365;SDS011;5229;41.820;23.490;2023-02-12T12:36:11;6.13;;;5.07;;
10365;SDS011;5229;41.820;23.490;2023-02-12T12:39:05;6.07;;;4.67;;
10365;SDS011;5229;41.820;23.490;2023-02-12T12:41:46;6.33;;;4.80;;
10365;SDS011;5229;41.820;23.490;2023-02-12T12:44:30;5.60;;;4.80;;
10365;SDS011;5229;41.820;23.490;2023-02-12T12:47:10;6.43;;;5.13;;
10365;SDS011;5229;41.820;23.490;2023-02-12T12:49:49;5.57;;;4.57;;
10365;SDS011;5229;41.820;23.490;2023-02-12T12:52:33;5.27;;;4.30;;
10365;SDS011;5229;41.820;23.490;2023-02-12T12:55:21;5.60;;;4.10;;
10365;SDS011;5229;41.820;23.490;2023-02-12T12:58:04;5.00;;;3.90;;
10365;SDS011;5229;41.820;23.490;2023-02-12T13:00:44;6.67;;;3.67;;
10365;SDS011;5229;41.820;23.490;2023-02-12T13:06:31;5.73;;;4.37;;
10365;SDS011;5229;41.820;23.490;2023-02-12T13:09:28;7.87;;;5.17;;
10365;SDS011;5229;41.820;23.490;2023-02-12T13:12:16;5.70;;;4.60;;
10365;SDS011;5229;41.820;23.490;2023-02-12T13:14:59;8.43;;;5.70;;
10365;SDS011;5229;41.820;23.490;2023-02-12T13:17:32;7.43;;;5.57;;
10365;SDS011;5229;41.820;23.490;2023-02-12T13:20:06;6.60;;;5.23;;
10365;SDS011;5229;41.820;23.490;2023-02-12T13:22:39;6.43;;;4.97;;
10365;SDS011;5229;41.820;23.490;2023-02-12T13:25:16;5.53;;;4.20;;
10365;SDS011;5229;41.820;23.490;2023-02-12T13:27:50;8.60;;;6.63;;
10365;SDS011;5229;41.820;23.490;2023-02-12T13:30:20;8.00;;;6.03;;
10365;SDS011;5229;41.820;23.490;2023-02-12T13:32:51;11.60;;;7.47;;
10365;SDS011;5229;41.820;23.490;2023-02-12T13:35:26;11.47;;;7.60;;
10365;SDS011;5229;41.820;23.490;2023-02-12T13:37:56;21.80;;;12.47;;
10365;SDS011;5229;41.820;23.490;2023-02-12T13:40:25;10.83;;;8.10;;
10365;SDS011;5229;41.820;23.490;2023-02-12T13:42:57;11.93;;;9.10;;
10365;SDS011;5229;41.820;23.490;2023-02-12T13:45:39;13.10;;;8.33;;
10365;SDS011;5229;41.820;23.490;2023-02-12T13:48:17;13.47;;;9.83;;
10365;SDS011;5229;41.820;23.490;2023-02-12T13:50:49;15.50;;;11.17;;
10365;SDS011;5229;41.820;23.490;2023-02-12T13:53:26;11.77;;;8.50;;
10365;SDS011;5229;41.820;23.490;2023-02-12T13:56:05;13.87;;;9.03;;
10365;SDS011;5229;41.820;23.490;2023-02-12T13:58:39;13.93;;;9.80;;
10365;SDS011;5229;41.820;23.490;2023-02-12T14:01:12;10.30;;;7.83;;
10365;SDS011;5229;41.820;23.490;2023-02-12T14:04:03;10.53;;;7.60;;
10365;SDS011;5229;41.820;23.490;2023-02-12T14:06:49;12.57;;;8.03;;
10365;SDS011;5229;41.820;23.490;2023-02-12T14:09:20;11.93;;;8.20;;
10365;SDS011;5229;41.820;23.490;2023-02-12T14:11:51;26.53;;;19.53;;
10365;SDS011;5229;41.820;23.490;2023-02-12T14:14:25;23.43;;;17.13;;
10365;SDS011;5229;41.820;23.490;2023-02-12T14:16:54;11.43;;;9.10;;
10365;SDS011;5229;41.820;23.490;2023-02-12T14:25:29;9.20;;;6.70;;
10365;SDS011;5229;41.820;23.490;2023-02-12T14:28:05;10.77;;;6.37;;
10365;SDS011;5229;41.820;23.490;2023-02-12T14:30:37;7.27;;;5.67;;
10365;SDS011;5229;41.820;23.490;2023-02-12T14:35:48;9.93;;;6.90;;
10365;SDS011;5229;41.820;23.490;2023-02-12T14:41:28;10.53;;;6.53;;
10365;SDS011;5229;41.820;23.490;2023-02-12T14:47:47;10.33;;;6.27;;
10365;SDS011;5229;41.820;23.490;2023-02-12T14:50:21;9.17;;;5.90;;
10365;SDS011;5229;41.820;23.490;2023-02-12T14:52:57;8.37;;;6.27;;
10365;SDS011;5229;41.820;23.490;2023-02-12T14:55:29;10.90;;;7.20;;
10365;SDS011;5229;41.820;23.490;2023-02-12T14:57:59;11.77;;;7.80;;
10365;SDS011;5229;41.820;23.490;2023-02-12T15:00:30;8.77;;;6.93;;
10365;SDS011;5229;41.820;23.490;2023-02-12T15:03:06;9.80;;;6.73;;
10365;SDS011;5229;41.820;23.490;2023-02-12T15:05:43;9.70;;;6.93;;
10365;SDS011;5229;41.820;23.490;2023-02-12T15:08:17;10.10;;;6.90;;
10365;SDS011;5229;41.820;23.490;2023-02-12T15:10:51;9.30;;;7.00;;
10365;SDS011;5229;41.820;23.490;2023-02-12T15:13:23;10.90;;;7.17;;
10365;SDS011;5229;41.820;23.490;2023-02-12T15:15:56;9.60;;;6.43;;
10365;SDS011;5229;41.820;23.490;2023-02-12T15:18:41;8.87;;;6.37;;
10365;SDS011;5229;41.820;23.490;2023-02-12T15:21:13;11.30;;;6.70;;
10365;SDS011;5229;41.820;23.490;2023-02-12T15:23:45;8.13;;;6.27;;
10365;SDS011;5229;41.820;23.490;2023-02-12T15:26:13;9.97;;;6.70;;
10365;SDS011;5229;41.820;23.490;2023-02-12T15:28:44;9.50;;;6.73;;
10365;SDS011;5229;41.820;23.490;2023-02-12T15:31:14;8.87;;;6.47;;
10365;SDS011;5229;41.820;23.490;2023-02-12T15:33:45;10.97;;;6.43;;
10365;SDS011;5229;41.820;23.490;2023-02-12T15:36:15;7.50;;;5.80;;
10365;SDS011;5229;41.820;23.490;2023-02-12T15:38:44;8.30;;;5.97;;
10365;SDS011;5229;41.820;23.490;2023-02-12T15:41:22;8.10;;;6.17;;
10365;SDS011;5229;41.820;23.490;2023-02-12T15:43:52;9.70;;;6.17;;